Weather History for KLAM - February, 2013

Change the Weather History Date:

Saturday, February 23, 2013

  Actual Average Record
Temperature  
Mean Temperature 30 °F -  
Max Temperature 43 °F 45 °F 64 °F (2009)
Min Temperature 17 °F 21 °F -4 °F (1975)
Degree Days  
Heating Degree Days 35    
Moisture  
Dew Point 12 °F    
Average Humidity 53    
Maximum Humidity 84    
Minimum Humidity 26    
Precipitation  
Precipitation 0.00 in - - ()
Sea Level Pressure  
Sea Level Pressure 29.87 in    
Wind  
Wind Speed 3 mph (SSE)    
Max Wind Speed 13 mph    
Max Gust Speed 20 mph    
Visibility 10 miles    
Events      
Averages and records for this station are not official NWS values.
T = Trace of Precipitation, MM = Missing Value Source: NWS Daily Summary

Daily Weather History Graph

Daily Weather History Graph

Search for Another Location

Airport or City:

Trip Planner

Search our weather history database for the weather conditions in past years. The results will help you decide how hot, cold, wet, or windy it might be!

Date:

Astronomy

Feb. 23, 2013 Rise Set
Actual Time 6:42 AM MST 5:54 PM MST
Civil Twilight 6:16 AM MST 6:20 PM MST
Nautical Twilight 5:46 AM MST 6:50 PM MST
Astronomical Twilight 5:17 AM MST 7:20 PM MST
Moon 4:09 PM MST (2/23) 5:04 AM MST (2/23)
Length of Visible Light 12h 04m
Length of Day
11h 12m
Waxing Gibbous, 95% of the Moon is Illuminated
Feb 23
Waxing Gibbous
Feb 25
Full
Mar 4
Last Quarter
Mar 11
New
Mar 19
First Quarter

Hourly Weather History & Observations

Time (MST) Temp. Windchill Dew Point Humidity Pressure Visibility Wind Dir Wind Speed Gust Speed Precip Events Conditions
12:15 AM 23.4 °F - 15.3 °F 71% 29.96 in 10.0 mi Calm Calm - N/A   Clear
12:35 AM 22.3 °F 14.9 °F 14.9 °F 73% 29.96 in 10.0 mi SSW 5.8 mph - N/A   Clear
12:55 AM 21.9 °F 14.5 °F 14.7 °F 74% 29.97 in 10.0 mi SSW 5.8 mph - N/A   Clear
1:15 AM 22.3 °F 17.6 °F 14.2 °F 71% 29.97 in 10.0 mi SSE 3.5 mph - N/A   Clear
1:35 AM 21.7 °F 17.0 °F 13.8 °F 72% 29.97 in 10.0 mi SE 3.5 mph - N/A   Clear
1:55 AM 21.2 °F 14.9 °F 14.5 °F 75% 29.97 in 10.0 mi SE 4.6 mph - N/A   Clear
2:15 AM 20.7 °F 14.2 °F 15.3 °F 80% 29.96 in 10.0 mi SE 4.6 mph - N/A   Clear
2:35 AM 20.3 °F 12.5 °F 15.3 °F 81% 29.96 in 10.0 mi SE 5.8 mph - N/A   Clear
2:55 AM 19.8 °F 14.7 °F 15.3 °F 83% 29.96 in 10.0 mi South 3.5 mph - N/A   Clear
3:15 AM 19.2 °F - 15.1 °F 84% 29.96 in 10.0 mi Calm Calm - N/A   Clear
3:35 AM 19.4 °F - 14.9 °F 83% 29.95 in 10.0 mi Calm Calm - N/A   Clear
3:55 AM 19.0 °F - 14.9 °F 84% 29.94 in 10.0 mi Calm Calm - N/A   Clear
4:15 AM 19.2 °F - 14.4 °F 81% 29.94 in 10.0 mi Calm Calm - N/A   Clear
4:35 AM 19.2 °F - 14.4 °F 81% 29.95 in 10.0 mi Calm Calm - N/A   Clear
4:55 AM 18.9 °F - 14.0 °F 81% 29.95 in 10.0 mi Calm Calm - N/A   Clear
5:15 AM 18.5 °F - 14.0 °F 83% 29.95 in 10.0 mi Calm Calm - N/A   Clear
5:35 AM 18.1 °F - 13.8 °F 83% 29.95 in 10.0 mi Calm Calm - N/A   Clear
5:55 AM 18.1 °F - 13.8 °F 83% 29.96 in 10.0 mi Calm Calm - N/A   Clear
6:15 AM 18.1 °F - 13.1 °F 81% 29.96 in 10.0 mi Calm Calm - N/A   Clear
6:35 AM 18.0 °F - 13.1 °F 81% 29.96 in 10.0 mi Calm Calm - N/A   Clear
6:55 AM 17.6 °F - 13.1 °F 83% 29.98 in 10.0 mi Calm Calm - N/A   Clear
7:15 AM 18.5 °F - 12.9 °F 79% 29.98 in 10.0 mi Calm Calm - N/A   Clear
7:35 AM 19.0 °F - 12.9 °F 77% 29.99 in 10.0 mi Calm Calm - N/A   Clear
7:55 AM 19.0 °F - 12.9 °F 77% 30.00 in 10.0 mi Calm Calm - N/A   Clear
8:15 AM 19.4 °F - 12.9 °F 76% 29.99 in 10.0 mi Calm Calm - N/A   Clear
8:35 AM 20.1 °F - 13.5 °F 75% 30.00 in 10.0 mi Calm Calm - N/A   Clear
8:55 AM 21.9 °F - 14.0 °F 72% 29.99 in - Calm Calm - N/A   Clear
9:15 AM 23.9 °F - 13.6 °F 65% 29.98 in 10.0 mi Calm Calm - N/A   Clear
9:35 AM 24.8 °F 20.5 °F 13.5 °F 62% 29.99 in 10.0 mi SSE 3.5 mph - N/A   Clear
9:55 AM 26.4 °F - 13.8 °F 59% 29.98 in 10.0 mi Calm Calm - N/A   Clear
10:15 AM 26.8 °F - 12.4 °F 55% 29.97 in 10.0 mi Calm Calm - N/A   Clear
10:35 AM 28.8 °F 25.0 °F 12.6 °F 51% 29.97 in 10.0 mi ESE 3.5 mph - N/A   Clear
10:55 AM 29.8 °F 26.3 °F 12.4 °F 48% 29.96 in 10.0 mi SSW 3.5 mph - N/A   Clear
11:15 AM 29.7 °F 24.7 °F 10.2 °F 44% 29.95 in 10.0 mi SSE 4.6 mph - N/A   Clear
11:35 AM 31.8 °F 26.2 °F 11.8 °F 44% 29.92 in 10.0 mi East 5.8 mph - N/A   Clear
11:55 AM 32.5 °F 27.1 °F 11.3 °F 41% 29.91 in 10.0 mi East 5.8 mph - N/A   Clear
12:15 PM 33.6 °F 30.6 °F 11.8 °F 41% 29.90 in 10.0 mi ESE 3.5 mph - N/A   Clear
12:35 PM 34.3 °F 28.4 °F 10.9 °F 38% 29.88 in 10.0 mi SSE 6.9 mph - N/A   Clear
12:55 PM 34.9 °F 29.0 °F 11.3 °F 38% 29.88 in 10.0 mi SE 6.9 mph - N/A   Clear
1:15 PM 35.8 °F 30.9 °F 10.6 °F 35% 29.86 in 10.0 mi SSE 5.8 mph - N/A   Clear
1:35 PM 37.2 °F 33.6 °F 10.2 °F 33% 29.84 in 10.0 mi ESE 4.6 mph - N/A   Clear
1:55 PM 37.6 °F 32.3 °F 10.2 °F 32% 29.83 in 10.0 mi SE 6.9 mph - N/A   Clear
2:15 PM 38.3 °F 35.9 °F 10.6 °F 32% 29.82 in 10.0 mi East 3.5 mph - N/A   Clear
2:35 PM 38.3 °F - 10.8 °F 32% 29.81 in 10.0 mi Calm Calm - N/A   Clear
2:55 PM 39.7 °F 34.9 °F 10.4 °F 30% 29.80 in 10.0 mi SE 6.9 mph - N/A   Clear
3:15 PM 40.1 °F - 8.8 °F 28% 29.79 in 10.0 mi Calm Calm - N/A   Clear
3:35 PM 41.7 °F 38.8 °F 10.0 °F 27% 29.78 in 10.0 mi ENE 4.6 mph - N/A   Clear
3:55 PM 41.9 °F - 9.3 °F 26% 29.77 in 10.0 mi Calm Calm - N/A   Clear
4:15 PM 42.4 °F 37.5 °F 9.9 °F 26% 29.76 in 10.0 mi SSE 8.1 mph - N/A   Clear
4:35 PM 42.6 °F 37.8 °F 10.8 °F 27% 29.76 in 10.0 mi South 8.1 mph - N/A   Clear
4:55 PM 43.0 °F 40.3 °F 11.1 °F 27% 29.75 in 10.0 mi SSE 4.6 mph - N/A   Clear
5:15 PM 42.8 °F 39.3 °F 11.5 °F 28% 29.74 in 10.0 mi South 5.8 mph - N/A   Clear
5:35 PM 42.8 °F 38.0 °F 11.8 °F 28% 29.74 in 10.0 mi South 8.1 mph - N/A   Clear
5:55 PM 40.8 °F 34.1 °F 11.3 °F 30% 29.74 in 10.0 mi South 11.5 mph - N/A   Clear
6:15 PM 39.6 °F 33.5 °F 11.3 °F 31% 29.74 in 10.0 mi South 9.2 mph - N/A   Clear
6:35 PM 37.8 °F 31.8 °F 8.8 °F 30% 29.74 in 10.0 mi South 8.1 mph - N/A   Clear
6:55 PM 36.5 °F 30.3 °F 8.8 °F 32% 29.74 in 10.0 mi South 8.1 mph - N/A   Clear
7:15 PM 35.6 °F 27.5 °F 9.5 °F 34% 29.74 in 10.0 mi South 11.5 mph - N/A   Clear
7:35 PM 35.6 °F 27.1 °F 10.4 °F 35% 29.74 in 10.0 mi SSW 12.7 mph 19.6 mph N/A   Clear
8:15 PM 37.0 °F 29.8 °F 10.2 °F 33% 29.73 in 10.0 mi SW 10.4 mph - N/A   Scattered Clouds
8:35 PM 37.6 °F 31.0 °F 9.9 °F 32% 29.73 in 10.0 mi SW 9.2 mph - N/A   Scattered Clouds
9:15 PM 37.8 °F 31.8 °F 10.0 °F 32% 29.74 in 10.0 mi SSW 8.1 mph - N/A   Scattered Clouds
9:55 PM 37.4 °F 30.3 °F 10.6 °F 33% 29.73 in 10.0 mi South 10.4 mph - N/A   Mostly Cloudy
10:15 PM 37.4 °F 29.8 °F 11.1 °F 34% 29.72 in 10.0 mi South 11.5 mph 16.1 mph N/A   Overcast
10:35 PM 37.2 °F 31.2 °F 11.1 °F 34% 29.72 in 10.0 mi South 8.1 mph - N/A   Overcast
10:55 PM 38.5 °F 31.6 °F 15.8 °F 40% 29.72 in 10.0 mi SSW 10.4 mph 17.3 mph N/A   Overcast
11:15 PM 38.5 °F 31.1 °F 17.8 °F 43% 29.72 in 10.0 mi SSW 11.5 mph 17.3 mph N/A   Mostly Cloudy
11:35 PM 37.6 °F 31.6 °F 15.4 °F 41% 29.72 in 10.0 mi South 8.1 mph - N/A   Overcast
11:55 PM 35.2 °F 28.8 °F 11.7 °F 38% 29.72 in 10.0 mi South 8.1 mph - N/A   Overcast